Time;durP1;ratioP1;P1;durP2;ratioP2;P2;SDS_P1;SDS_P2;PMS_P1;PMS_P2;Temp;Humidity;BMP_temperature;BMP_pressure;BME280_temperature;BME280_humidity;BME280_pressure;Samples;Min_cycle;Max_cycle;Signal;HPM_P1;HPM_P2
2021/05/06 00:01:55;;;;;;;10.88;4.70;;;;;;;6.34;73.24;100537.16;5048302;28;20055;-70
2021/05/06 00:34:22;;;;;;;10.10;5.63;;;;;;;5.78;75.46;100471.13;5081764;28;20151;-69
2021/05/06 00:36:48;;;;;;;10.15;5.03;;;;;;;5.76;75.74;100473.69;5084411;28;20044;-69
2021/05/06 00:39:17;;;;;;;9.80;5.93;;;;;;;5.72;75.98;100478.00;5088664;28;20497;-67
2021/05/06 00:41:54;;;;;;;12.30;5.60;;;;;;;5.71;76.61;100478.88;5088689;28;20056;-69
2021/05/06 00:55:42;;;;;;;9.38;4.70;;;;;;;5.69;76.43;100456.50;5080774;28;20175;-67
2021/05/06 01:01:07;;;;;;;8.07;4.57;;;;;;;5.65;76.50;100447.06;5077021;28;20059;-69
2021/05/06 01:03:41;;;;;;;7.78;4.93;;;;;;;5.64;76.72;100448.78;5085192;28;20060;-68
2021/05/06 01:06:11;;;;;;;;;;;;;;;5.66;76.79;100446.19;5077265;28;20051;-69
2021/05/06 01:08:41;;;;;;;10.20;5.25;;;;;;;5.56;76.89;100441.06;5080476;28;19935;-69
2021/05/06 01:11:15;;;;;;;7.82;4.82;;;;;;;5.50;77.44;100445.38;5082985;28;20452;-69
2021/05/06 01:13:43;;;;;;;8.67;4.30;;;;;;;5.54;77.34;100447.94;5077647;28;20469;-70
2021/05/06 01:16:09;;;;;;;7.57;4.35;;;;;;;5.53;77.09;100446.25;5084459;28;20117;-68
2021/05/06 01:18:35;;;;;;;10.48;4.85;;;;;;;5.58;76.57;100451.41;5086126;28;20040;-69
2021/05/06 01:21:03;;;;;;;7.60;4.43;;;;;;;5.56;76.74;100446.22;5082808;28;20051;-68
2021/05/06 01:23:31;;;;;;;6.85;4.10;;;;;;;5.58;76.84;100444.50;5080028;28;20044;-68
2021/05/06 01:26:02;;;;;;;7.15;4.70;;;;;;;5.56;76.95;100443.66;5083505;28;20040;-68
2021/05/06 01:28:30;;;;;;;8.82;4.53;;;;;;;5.57;76.62;100445.38;5083275;28;20040;-68
2021/05/06 01:31:02;;;;;;;6.45;4.43;;;;;;;5.54;76.85;100437.63;5088695;28;20093;-69
2021/05/06 01:33:33;;;;;;;9.15;4.40;;;;;;;5.55;77.23;100439.34;5086539;28;20060;-68
2021/05/06 01:36:02;;;;;;;7.85;4.60;;;;;;;5.58;76.36;100428.19;5078172;28;20051;-68
2021/05/06 01:38:57;;;;;;;9.00;4.75;;;;;;;5.58;76.71;100423.88;5079483;28;20097;-69
2021/05/06 01:41:42;;;;;;;7.00;4.35;;;;;;;5.65;76.33;100429.88;5079800;28;20048;-68
2021/05/06 01:44:10;;;;;;;;;;;;;;;5.70;76.16;100424.69;5084871;28;20127;-69
2021/05/06 01:47:10;;;;;;;8.18;4.35;;;;;;;5.74;76.03;100427.25;5083248;28;20420;-68
2021/05/06 01:49:57;;;;;;;9.77;4.88;;;;;;;5.72;75.73;100426.38;5078853;28;20067;-69
2021/05/06 01:58:11;;;;;;;9.48;4.85;;;;;;;5.85;76.10;100410.84;5086636;28;20093;-67
2021/05/06 02:00:38;;;;;;;10.13;5.13;;;;;;;5.79;76.64;100418.63;5091496;28;20047;-69
2021/05/06 02:03:04;;;;;;;12.35;6.03;;;;;;;5.77;77.00;100410.88;5084199;28;20093;-69
2021/05/06 02:05:30;;;;;;;9.63;5.05;;;;;;;5.86;77.17;100413.41;5082680;28;20049;-69
2021/05/06 02:07:57;;;;;;;11.70;6.13;;;;;;;5.93;76.76;100410.81;5084875;28;20456;-69
2021/05/06 02:10:26;;;;;;;10.43;5.65;;;;;;;5.98;76.84;100407.34;5081056;28;20063;-69
2021/05/06 02:12:52;;;;;;;12.10;6.03;;;;;;;5.99;76.92;100413.34;5078539;28;20074;-69
2021/05/06 02:15:21;;;;;;;8.95;5.43;;;;;;;5.99;76.78;100410.78;5086678;28;20044;-69
2021/05/06 02:17:47;;;;;;;10.40;5.57;;;;;;;6.00;77.25;100410.78;5081842;28;20044;-68
2021/05/06 02:20:15;;;;;;;8.68;5.32;;;;;;;6.01;76.90;100406.50;5086922;28;20055;-69
2021/05/06 02:22:41;;;;;;;9.52;5.93;;;;;;;5.98;77.53;100407.34;5082083;28;20086;-68
2021/05/06 02:25:08;;;;;;;10.48;5.93;;;;;;;5.89;77.93;100403.09;5088322;28;20082;-69
2021/05/06 02:27:35;;;;;;;6.60;4.55;;;;;;;5.96;76.60;100400.47;5084893;28;20493;-69
2021/05/06 02:30:01;;;;;;;8.18;5.45;;;;;;;5.83;76.19;100402.25;5087645;28;20493;-69
2021/05/06 02:32:28;;;;;;;11.30;5.20;;;;;;;5.76;76.40;100398.84;5089936;28;20044;-68
2021/05/06 02:34:54;;;;;;;7.60;5.10;;;;;;;5.65;77.32;100401.47;5086876;28;20043;-68
2021/05/06 02:37:20;;;;;;;11.90;5.20;;;;;;;5.48;77.83;100395.53;5096150;28;20071;-68
2021/05/06 02:39:46;;;;;;;12.68;4.72;;;;;;;5.38;77.92;100387.84;5083838;28;20101;-69
2021/05/06 02:42:13;;;;;;;9.90;4.82;;;;;;;5.45;78.92;100396.38;5082435;28;20270;-68
2021/05/06 02:44:40;;;;;;;9.40;4.60;;;;;;;5.35;78.77;100402.44;5086353;28;20052;-68
2021/05/06 02:47:06;;;;;;;10.15;4.45;;;;;;;5.36;78.94;100396.41;5085694;28;20048;-69
2021/05/06 02:49:32;;;;;;;8.23;4.65;;;;;;;5.33;78.91;100380.97;5083756;28;20496;-68
2021/05/06 02:52:04;;;;;;;9.23;4.40;;;;;;;5.30;79.44;100392.13;5082864;28;20044;-68
2021/05/06 02:54:36;;;;;;;6.18;3.80;;;;;;;5.20;79.42;100381.00;5080625;28;20052;-69
2021/05/06 02:57:07;;;;;;;6.25;3.92;;;;;;;5.15;79.76;100377.56;5083161;28;20047;-69
2021/05/06 03:04:58;;;;;;;7.13;2.92;;;;;;;5.13;79.95;100380.16;5078459;28;20075;-68
2021/05/06 03:07:27;;;;;;;6.68;2.88;;;;;;;5.13;80.19;100364.69;5077673;28;20040;-69
2021/05/06 03:10:00;;;;;;;8.32;2.63;;;;;;;5.12;80.17;100373.28;5086081;28;20058;-68
2021/05/06 03:12:38;;;;;;;6.20;3.03;;;;;;;5.12;80.06;100373.28;5086683;28;20048;-68
2021/05/06 03:20:58;;;;;;;6.72;3.17;;;;;;;5.15;79.60;100369.84;5079250;28;20497;-68
2021/05/06 03:23:26;;;;;;;7.25;2.70;;;;;;;5.08;79.78;100363.00;5081038;28;20089;-69
2021/05/06 03:25:52;;;;;;;8.75;2.60;;;;;;;4.96;80.03;100362.16;5085785;28;20076;-68
2021/05/06 03:28:24;;;;;;;6.60;2.70;;;;;;;4.89;80.59;100365.63;5087694;28;20040;-69
2021/05/06 03:42:05;;;;;;;6.80;2.83;;;;;;;4.83;80.59;100358.75;5029457;28;20538;-68
2021/05/06 03:44:49;;;;;;;5.65;2.80;;;;;;;4.83;80.98;100356.19;5088491;28;20048;-69
2021/05/06 03:47:38;;;;;;;7.30;2.70;;;;;;;4.89;80.83;100357.88;5088897;28;20047;-68
2021/05/06 04:12:38;;;;;;;6.07;3.20;;;;;;;4.88;81.86;100370.78;5079389;28;20139;-68
2021/05/06 04:18:08;;;;;;;8.30;3.00;;;;;;;5.01;81.06;100371.59;5085629;28;20389;-66
2021/05/06 04:37:01;;;;;;;6.45;3.15;;;;;;;5.22;80.64;100384.44;5085241;28;20058;-70
2021/05/06 04:39:36;;;;;;;6.78;3.25;;;;;;;5.15;81.34;100382.72;5089566;28;20206;-68
2021/05/06 04:42:19;;;;;;;9.02;3.60;;;;;;;5.18;81.51;100382.72;5085074;28;20801;-69
2021/05/06 04:50:26;;;;;;;5.50;3.28;;;;;;;5.40;80.78;100387.81;5084193;28;20054;-68
2021/05/06 04:55:40;;;;;;;11.65;4.00;;;;;;;5.51;79.72;100391.22;5089260;28;20050;-68
2021/05/06 04:58:43;;;;;;;10.27;4.10;;;;;;;5.57;80.26;100393.78;5085609;28;20036;-69
2021/05/06 05:03:59;;;;;;;8.15;3.58;;;;;;;5.55;79.74;100384.31;5083604;28;20097;-69
2021/05/06 05:06:27;;;;;;;8.68;4.13;;;;;;;5.58;79.77;100392.06;5082363;28;20054;-66
2021/05/06 05:08:59;;;;;;;7.65;4.10;;;;;;;5.55;79.78;100394.66;5086280;28;20047;-68
2021/05/06 05:11:40;;;;;;;7.80;4.13;;;;;;;5.61;79.86;100394.59;5081343;28;20090;-66
2021/05/06 05:20:06;;;;;;;9.38;4.40;;;;;;;5.69;80.51;100394.59;5089822;28;20359;-68
2021/05/06 05:25:21;;;;;;;8.13;4.28;;;;;;;5.77;79.58;100397.97;5087498;28;20081;-70
2021/05/06 05:27:48;;;;;;;9.77;5.22;;;;;;;5.74;79.75;100403.16;5088947;28;20040;-68
2021/05/06 05:30:15;;;;;;;9.80;4.90;;;;;;;5.81;79.97;100402.28;5086754;28;20052;-69
2021/05/06 05:32:41;;;;;;;8.13;4.45;;;;;;;5.78;80.05;100399.69;5087187;28;20063;-68
2021/05/06 05:35:11;;;;;;;9.25;4.78;;;;;;;5.79;79.72;100404.00;5088253;28;20044;-69
2021/05/06 05:37:40;;;;;;;9.85;5.60;;;;;;;5.83;79.58;100400.56;5089523;28;20047;-68
2021/05/06 05:40:17;;;;;;;9.30;5.63;;;;;;;5.80;79.17;100402.25;5087482;28;20051;-69
2021/05/06 05:43:00;;;;;;;11.85;5.60;;;;;;;5.79;79.86;100406.56;5086078;28;20421;-68
2021/05/06 05:46:16;;;;;;;10.95;6.45;;;;;;;5.77;79.66;100408.31;5086636;28;20430;-68
2021/05/06 05:54:36;;;;;;;10.05;6.75;;;;;;;5.88;79.19;100414.28;5080679;28;20086;-68
2021/05/06 05:57:06;;;;;;;9.75;6.55;;;;;;;5.86;79.73;100420.31;5090521;28;20056;-68
2021/05/06 05:59:32;;;;;;;14.80;7.63;;;;;;;5.85;79.93;100427.19;5088920;28;20044;-68
2021/05/06 06:01:59;;;;;;;15.15;8.05;;;;;;;6.57;86.70;100421.63;5086894;28;20051;-70
2021/05/06 06:04:25;;;;;;;11.95;7.05;;;;;;;7.28;80.60;100416.66;5083456;28;20552;-66
2021/05/06 06:06:51;;;;;;;12.93;7.65;;;;;;;7.34;74.36;100417.44;5085915;28;20040;-66
2021/05/06 06:09:17;;;;;;;12.43;8.25;;;;;;;7.28;73.44;100405.44;5080034;28;20044;-66
2021/05/06 06:11:42;;;;;;;12.00;8.23;;;;;;;7.16;74.05;100406.44;5081333;28;20081;-66
2021/05/06 06:14:09;;;;;;;11.70;8.02;;;;;;;7.12;74.14;100415.09;5081926;28;20378;-65
2021/05/06 06:16:37;;;;;;;16.80;9.38;;;;;;;6.97;74.73;100416.09;5089183;28;20048;-66
2021/05/06 06:19:05;;;;;;;14.35;9.13;;;;;;;6.87;75.63;100420.50;5081124;28;20055;-66
2021/05/06 06:21:34;;;;;;;18.85;9.32;;;;;;;6.78;75.90;100411.09;5083088;28;20073;-66
2021/05/06 06:24:00;;;;;;;13.65;9.15;;;;;;;6.79;75.74;100422.28;5082856;28;20085;-65
2021/05/06 06:26:27;;;;;;;12.93;9.05;;;;;;;6.78;75.72;100418.84;5086764;28;20040;-65
2021/05/06 06:28:55;;;;;;;14.20;9.82;;;;;;;6.82;75.42;100419.69;5083489;28;20048;-67
2021/05/06 06:31:23;;;;;;;14.25;9.57;;;;;;;6.78;75.62;100415.44;5086048;28;20134;-66
2021/05/06 06:33:50;;;;;;;15.98;10.43;;;;;;;6.81;75.19;100416.25;5082142;28;20132;-66
2021/05/06 06:36:17;;;;;;;14.15;9.15;;;;;;;7.26;80.77;100420.13;5083360;28;20047;-66
2021/05/06 06:38:44;;;;;;;13.93;8.77;;;;;;;7.78;75.70;100422.09;5087014;28;20059;-66
2021/05/06 06:41:12;;;;;;;14.20;8.98;;;;;;;8.21;74.87;100410.28;5088218;28;20040;-66
2021/05/06 06:43:39;;;;;;;17.35;10.82;;;;;;;8.30;70.84;100414.50;5081790;28;20509;-65
2021/05/06 06:46:05;;;;;;;15.52;9.98;;;;;;;8.17;71.11;100415.53;5080989;28;20484;-64
2021/05/06 06:48:31;;;;;;;16.15;10.60;;;;;;;7.89;71.28;100413.34;5084686;28;20053;-65
2021/05/06 06:50:57;;;;;;;14.85;10.52;;;;;;;7.60;72.13;100412.81;5077775;28;20432;-65
2021/05/06 06:53:23;;;;;;;14.35;10.52;;;;;;;7.45;72.83;100415.59;5085640;28;20097;-63
2021/05/06 06:55:49;;;;;;;18.50;11.30;;;;;;;7.43;73.12;100412.16;5088874;28;20097;-65
2021/05/06 06:58:16;;;;;;;15.05;11.02;;;;;;;7.45;73.50;100421.63;5077321;28;20055;-63
2021/05/06 07:00:44;;;;;;;14.23;10.18;;;;;;;7.54;71.99;100414.63;5079131;28;20499;-64
2021/05/06 07:03:10;;;;;;;15.43;10.40;;;;;;;7.62;73.04;100420.59;5083575;28;20839;-65
2021/05/06 07:05:36;;;;;;;14.30;11.07;;;;;;;7.78;73.69;100422.09;5077850;28;20060;-65
2021/05/06 07:08:14;;;;;;;14.25;10.48;;;;;;;8.06;71.97;100420.88;5085617;28;20509;-63
2021/05/06 07:10:41;;;;;;;15.52;10.70;;;;;;;8.15;71.85;100412.09;5082105;28;20073;-63
2021/05/06 07:13:07;;;;;;;14.18;10.63;;;;;;;8.19;71.11;100416.38;5082013;28;20055;-66
2021/05/06 07:15:33;;;;;;;13.35;10.25;;;;;;;8.28;70.39;100407.63;5078789;28;20131;-64
2021/05/06 07:17:59;;;;;;;16.65;10.10;;;;;;;8.29;70.84;100411.91;5088063;28;20052;-65
2021/05/06 07:20:25;;;;;;;14.90;9.98;;;;;;;8.40;70.39;100407.41;5085842;28;20153;-64
2021/05/06 07:22:51;;;;;;;15.45;10.05;;;;;;;8.59;69.19;100413.19;5085598;28;20051;-65
2021/05/06 07:25:18;;;;;;;13.30;9.18;;;;;;;8.65;67.49;100407.91;5077603;28;20132;-65
2021/05/06 07:27:44;;;;;;;12.77;9.55;;;;;;;8.65;67.69;100410.50;5079601;28;20505;-66
2021/05/06 07:30:11;;;;;;;12.23;9.90;;;;;;;8.70;66.88;100411.28;5077864;28;20109;-66
2021/05/06 07:32:37;;;;;;;12.70;9.77;;;;;;;8.79;67.43;100405.06;5079034;28;20081;-66
2021/05/06 07:35:04;;;;;;;16.55;11.20;;;;;;;8.78;67.47;100408.59;5073130;28;20517;-66
2021/05/06 07:37:30;;;;;;;16.70;10.52;;;;;;;9.14;67.52;100408.78;5074918;28;20380;-66
2021/05/06 07:39:56;;;;;;;16.23;11.18;;;;;;;9.16;65.80;100407.03;5078334;28;20498;-66
2021/05/06 07:42:22;;;;;;;16.40;11.02;;;;;;;9.21;67.18;100404.34;5080240;28;20040;-66
2021/05/06 07:44:51;;;;;;;16.52;10.93;;;;;;;9.23;67.04;100404.31;5084314;28;20063;-67
2021/05/06 07:47:17;;;;;;;14.65;10.93;;;;;;;9.40;66.65;100399.63;5082865;28;20044;-66
2021/05/06 07:49:46;;;;;;;14.60;10.50;;;;;;;9.53;66.50;100389.88;5078855;28;20063;-67
2021/05/06 07:52:15;;;;;;;15.23;11.35;;;;;;;9.64;66.76;100393.09;5075843;28;20650;-65
2021/05/06 07:54:41;;;;;;;16.30;10.68;;;;;;;9.77;66.77;100388.50;5080482;28;20056;-66
2021/05/06 07:57:07;;;;;;;17.23;10.35;;;;;;;9.88;65.49;100385.66;5089115;28;20055;-64
2021/05/06 07:59:33;;;;;;;18.40;11.93;;;;;;;9.86;64.94;100386.59;5085380;28;20048;-66
2021/05/06 08:02:00;;;;;;;15.40;11.45;;;;;;;9.71;63.87;100388.63;5083770;28;20490;-67
2021/05/06 08:04:26;;;;;;;14.20;11.48;;;;;;;9.53;63.88;100399.41;5080728;28;20044;-65
2021/05/06 08:06:52;;;;;;;14.68;12.20;;;;;;;8.94;64.49;100390.97;5079477;28;20475;-66
2021/05/06 08:09:18;;;;;;;15.27;11.73;;;;;;;8.97;64.68;100390.94;5079807;28;20219;-67
2021/05/06 08:11:44;;;;;;;21.13;12.20;;;;;;;9.00;65.89;100390.88;5082646;28;20040;-64
2021/05/06 08:14:10;;;;;;;14.85;10.95;;;;;;;9.16;64.30;100399.25;5088328;28;20516;-66
2021/05/06 08:16:36;;;;;;;19.05;11.40;;;;;;;9.05;62.71;100395.13;5080931;28;20048;-67
2021/05/06 08:19:03;;;;;;;15.18;11.68;;;;;;;9.06;64.23;100399.44;5087072;28;20473;-66
2021/05/06 08:21:31;;;;;;;17.77;9.95;;;;;;;8.79;63.28;100401.63;5086659;28;20044;-66
2021/05/06 08:23:57;;;;;;;14.30;11.02;;;;;;;8.67;64.85;100395.78;5084986;28;20135;-67
2021/05/06 08:26:25;;;;;;;14.30;10.80;;;;;;;8.70;64.48;100398.31;5085140;28;20048;-67
2021/05/06 08:28:53;;;;;;;15.48;11.05;;;;;;;8.68;65.28;100392.31;5090323;28;20048;-66
2021/05/06 08:31:19;;;;;;;17.58;11.25;;;;;;;8.82;65.47;100399.00;5088316;28;20040;-66
2021/05/06 08:33:46;;;;;;;15.63;11.23;;;;;;;8.74;65.95;100395.66;5088764;28;20171;-65
2021/05/06 08:36:13;;;;;;;18.23;11.07;;;;;;;8.82;65.15;100396.41;5084422;28;20063;-65
2021/05/06 08:38:40;;;;;;;15.23;11.77;;;;;;;8.99;65.44;100403.88;5095591;28;20047;-66
2021/05/06 08:41:06;;;;;;;18.23;11.45;;;;;;;9.32;65.08;100401.53;5091184;28;20055;-67
2021/05/06 08:43:40;;;;;;;18.77;11.20;;;;;;;9.67;63.51;100399.09;5092090;28;20082;-66
2021/05/06 08:46:06;;;;;;;14.38;10.23;;;;;;;10.06;63.64;100397.41;5087982;28;20139;-65
2021/05/06 08:48:32;;;;;;;15.10;9.25;;;;;;;10.32;62.45;100390.72;5092920;28;20036;-66
2021/05/06 08:50:59;;;;;;;12.63;8.57;;;;;;;10.48;61.55;100391.25;5089366;28;20047;-65
2021/05/06 08:55:56;;;;;;;10.00;8.18;;;;;;;11.13;60.69;100376.56;5046614;28;20277;-64
2021/05/06 08:58:22;;;;;;;11.32;7.75;;;;;;;11.50;59.55;100372.06;5056026;28;20567;-64
2021/05/06 09:00:48;;;;;;;11.38;7.10;;;;;;;11.81;58.54;100364.22;5057951;28;20102;-64
2021/05/06 09:03:14;;;;;;;8.88;6.10;;;;;;;12.10;56.42;100359.88;5053320;28;20052;-64
2021/05/06 09:06:12;;;;;;;9.57;6.07;;;;;;;12.31;57.58;100364.44;5060275;28;20040;-65
2021/05/06 09:08:39;;;;;;;7.38;5.53;;;;;;;12.44;55.46;100360.53;5059480;28;20110;-65
2021/05/06 09:11:06;;;;;;;11.32;6.95;;;;;;;12.39;55.63;100359.81;5062283;28;20629;-64
2021/05/06 09:13:33;;;;;;;9.43;6.53;;;;;;;12.46;54.99;100360.47;5057909;28;20045;-64
2021/05/06 09:15:59;;;;;;;9.70;6.45;;;;;;;12.32;55.13;100367.03;5060688;28;20056;-65
2021/05/06 09:18:36;;;;;;;11.02;7.10;;;;;;;12.17;55.99;100362.28;5054910;28;20052;-66
2021/05/06 09:21:04;;;;;;;10.52;6.40;;;;;;;12.02;55.59;100367.09;5051974;28;20057;-64
2021/05/06 09:23:30;;;;;;;8.43;5.60;;;;;;;11.93;55.65;100367.31;5060983;28;20049;-64
2021/05/06 09:26:01;;;;;;;8.38;5.10;;;;;;;11.74;54.75;100367.88;5051264;28;20051;-64
2021/05/06 09:28:29;;;;;;;9.43;4.90;;;;;;;11.65;54.47;100362.97;5062192;28;20044;-64
2021/05/06 09:30:57;;;;;;;8.43;5.82;;;;;;;11.54;55.32;100365.88;5059039;28;20045;-64
2021/05/06 09:33:29;;;;;;;8.93;5.30;;;;;;;11.44;55.31;100367.88;5060530;28;20099;-64
2021/05/06 09:35:55;;;;;;;8.02;4.93;;;;;;;11.36;55.05;100369.88;5062274;28;20044;-65
2021/05/06 09:38:29;;;;;;;9.90;5.20;;;;;;;11.37;55.27;100366.38;5063479;28;20048;-64
2021/05/06 09:40:58;;;;;;;6.85;4.30;;;;;;;11.43;55.04;100376.59;5059585;28;20049;-64
2021/05/06 09:43:26;;;;;;;7.45;4.15;;;;;;;11.48;54.76;100355.63;5061938;28;20041;-64
2021/05/06 09:45:54;;;;;;;6.60;3.85;;;;;;;12.03;53.47;100354.91;5056692;28;20126;-64
2021/05/06 09:48:22;;;;;;;6.40;3.75;;;;;;;12.31;52.55;100352.28;5056615;28;20090;-65
2021/05/06 09:50:52;;;;;;;8.30;3.92;;;;;;;12.53;51.98;100354.16;5058344;28;20460;-64
2021/05/06 09:53:20;;;;;;;9.15;4.20;;;;;;;12.79;52.04;100352.44;5062870;28;20048;-64
2021/05/06 09:55:47;;;;;;;6.85;3.63;;;;;;;13.09;50.31;100349.63;5058128;28;20048;-64
2021/05/06 09:58:15;;;;;;;6.82;3.90;;;;;;;13.11;49.77;100353.88;5059253;28;20045;-64
2021/05/06 10:00:41;;;;;;;8.10;3.60;;;;;;;13.18;49.26;100347.53;5055362;28;20060;-64
2021/05/06 10:03:13;;;;;;;5.88;3.63;;;;;;;13.32;49.71;100344.44;5054145;28;20446;-64
2021/05/06 10:05:40;;;;;;;7.10;3.97;;;;;;;13.42;49.07;100336.28;5058508;28;20045;-64
2021/05/06 10:08:06;;;;;;;5.95;3.40;;;;;;;13.41;48.19;100332.81;5061283;28;20411;-64
2021/05/06 10:10:34;;;;;;;6.30;3.60;;;;;;;13.28;46.52;100334.13;5059319;28;20041;-64
2021/05/06 10:13:01;;;;;;;7.10;3.72;;;;;;;13.12;46.87;100342.53;5056817;28;20414;-64
2021/05/06 10:15:28;;;;;;;6.50;3.70;;;;;;;12.79;48.39;100331.53;5058665;28;20045;-65
2021/05/06 10:17:55;;;;;;;6.65;3.95;;;;;;;12.72;48.10;100328.28;5061583;28;20196;-65
2021/05/06 10:20:24;;;;;;;6.65;3.85;;;;;;;12.66;49.90;100334.56;5054684;28;20045;-64
2021/05/06 10:22:50;;;;;;;5.20;3.45;;;;;;;12.64;48.72;100331.16;5050551;28;20546;-64
2021/05/06 10:25:19;;;;;;;6.35;3.60;;;;;;;12.71;49.46;100332.66;5062070;28;20707;-64
2021/05/06 10:27:46;;;;;;;7.38;3.90;;;;;;;12.81;48.83;100327.13;5056357;28;20402;-64
2021/05/06 10:30:13;;;;;;;6.93;3.90;;;;;;;12.98;47.74;100327.38;5050547;28;20080;-64
2021/05/06 10:32:41;;;;;;;6.53;3.85;;;;;;;13.20;46.35;100324.00;5055727;28;20055;-64
2021/05/06 10:35:10;;;;;;;6.10;3.58;;;;;;;13.21;46.16;100315.25;5056495;28;20807;-64
2021/05/06 10:37:39;;;;;;;6.78;4.63;;;;;;;13.13;45.49;100312.91;5055518;28;20045;-64
2021/05/06 10:40:24;;;;;;;6.53;3.78;;;;;;;13.16;43.85;100307.59;5061051;28;20051;-63
2021/05/06 10:42:51;;;;;;;7.15;3.47;;;;;;;13.18;45.02;100310.97;5056901;28;20053;-65
2021/05/06 10:45:34;;;;;;;8.20;4.35;;;;;;;13.32;45.55;100297.41;5056339;28;20105;-64
2021/05/06 10:48:02;;;;;;;6.40;3.97;;;;;;;13.46;45.17;100298.66;5059965;28;20049;-64
2021/05/06 10:50:37;;;;;;;11.05;4.30;;;;;;;13.57;44.96;100299.09;5060363;28;20053;-63
2021/05/06 10:53:04;;;;;;;;;;;;;;;13.62;45.63;100299.78;5062156;28;20462;-64
2021/05/06 10:55:56;;;;;;;6.50;4.15;;;;;;;13.66;45.63;100293.53;5052805;28;19925;-64
2021/05/06 10:58:39;;;;;;;7.55;4.35;;;;;;;13.65;45.43;100283.97;5059894;28;20044;-64
2021/05/06 11:01:39;;;;;;;6.93;3.65;;;;;;;13.66;44.77;100296.13;5055805;28;20136;-64
2021/05/06 11:04:14;;;;;;;6.30;3.50;;;;;;;13.70;43.00;100286.41;5059775;28;20094;-64
2021/05/06 11:06:43;;;;;;;;;;;;;;;13.76;43.71;100282.69;5053661;28;20040;-63
2021/05/06 11:09:50;;;;;;;6.85;3.70;;;;;;;13.93;43.76;100275.03;5057288;28;20433;-64
2021/05/06 11:12:17;;;;;;;6.28;3.22;;;;;;;14.17;44.75;100284.56;5058126;28;20049;-64
2021/05/06 11:15:19;;;;;;;4.40;2.42;;;;;;;14.52;41.20;100274.34;5060041;28;20057;-64
2021/05/06 11:17:45;;;;;;;5.60;3.53;;;;;;;14.53;42.09;100269.03;5044303;28;20053;-64
2021/05/06 11:20:44;;;;;;;5.68;3.33;;;;;;;14.51;41.19;100267.41;5052035;28;20152;-64
2021/05/06 11:23:28;;;;;;;5.85;3.35;;;;;;;14.48;38.64;100257.06;5054430;28;20045;-64
2021/05/06 11:26:06;;;;;;;6.68;3.45;;;;;;;14.42;38.03;100259.06;5057978;28;20095;-64
2021/05/06 11:28:43;;;;;;;7.60;2.67;;;;;;;14.21;39.42;100246.88;5054118;28;20070;-64
2021/05/06 11:31:09;;;;;;;5.10;2.30;;;;;;;14.28;38.07;100246.56;5052480;28;20052;-64
2021/05/06 11:33:36;;;;;;;6.60;2.58;;;;;;;14.29;37.76;100236.94;5052470;28;20444;-64
2021/05/06 11:36:06;;;;;;;5.22;2.55;;;;;;;14.29;39.31;100232.56;5052346;28;20146;-64
2021/05/06 11:38:50;;;;;;;5.60;2.30;;;;;;;14.48;39.05;100237.00;5057098;28;20075;-64
2021/05/06 11:41:21;;;;;;;5.10;2.55;;;;;;;14.65;36.87;100231.03;5056618;28;20044;-63
2021/05/06 11:43:49;;;;;;;5.78;2.45;;;;;;;14.52;37.34;100227.25;5060240;28;20563;-64
2021/05/06 11:46:16;;;;;;;4.72;2.30;;;;;;;14.43;37.51;100223.25;5048917;28;20107;-63
2021/05/06 11:48:44;;;;;;;5.05;2.70;;;;;;;14.39;37.81;100222.53;5060562;28;20056;-64
2021/05/06 11:51:22;;;;;;;5.78;2.13;;;;;;;14.41;38.98;100225.13;5053669;28;20079;-64
2021/05/06 11:54:04;;;;;;;5.72;2.75;;;;;;;14.48;36.95;100223.06;5059618;28;20068;-64
2021/05/06 11:56:31;;;;;;;5.47;2.35;;;;;;;14.44;36.31;100219.72;5055925;28;20067;-64
2021/05/06 11:58:58;;;;;;;4.35;2.17;;;;;;;14.45;35.85;100210.97;5057265;28;20166;-63
2021/05/06 12:01:26;;;;;;;4.60;2.13;;;;;;;14.44;35.84;100210.13;5056623;28;20049;-64
2021/05/06 12:03:52;;;;;;;6.43;2.28;;;;;;;14.62;38.40;100197.97;5056814;28;20057;-64
2021/05/06 12:06:30;;;;;;;5.68;1.98;;;;;;;14.82;38.87;100200.66;5057239;28;20052;-64
2021/05/06 12:08:57;;;;;;;5.32;2.10;;;;;;;15.03;37.91;100185.69;5063308;28;20172;-64
2021/05/06 12:11:34;;;;;;;3.25;1.60;;;;;;;14.87;36.84;100191.66;5056023;28;20053;-64
2021/05/06 12:14:00;;;;;;;4.57;1.88;;;;;;;14.97;35.82;100175.53;5058759;28;20047;-64
2021/05/06 12:16:27;;;;;;;4.18;1.60;;;;;;;14.66;33.59;100179.50;5051594;28;20099;-65
2021/05/06 12:19:00;;;;;;;4.20;1.73;;;;;;;14.58;37.94;100185.09;5059220;28;20084;-64
2021/05/06 12:21:35;;;;;;;5.47;1.63;;;;;;;14.51;36.58;100178.44;5055665;28;20048;-64
2021/05/06 12:24:01;;;;;;;5.10;1.80;;;;;;;14.60;36.54;100172.78;5066965;28;20074;-64
2021/05/06 12:26:28;;;;;;;6.95;2.13;;;;;;;14.79;36.95;100172.84;5061091;28;20053;-64
2021/05/06 12:28:56;;;;;;;6.18;2.00;;;;;;;14.99;36.10;100165.84;5054826;28;20057;-63
2021/05/06 12:31:22;;;;;;;5.30;1.90;;;;;;;15.00;36.34;100163.13;5047131;28;20053;-64
2021/05/06 12:33:48;;;;;;;5.93;1.75;;;;;;;15.36;35.69;100161.44;5048342;28;20530;-64
2021/05/06 12:36:14;;;;;;;6.13;1.70;;;;;;;15.28;34.13;100155.72;5048318;28;20419;-64
2021/05/06 12:38:42;;;;;;;6.88;2.20;;;;;;;15.50;36.18;100147.66;5054782;28;20045;-66
2021/05/06 12:41:09;;;;;;;4.63;1.90;;;;;;;15.68;34.53;100149.38;5052771;28;20078;-64
2021/05/06 12:43:37;;;;;;;5.57;2.10;;;;;;;15.59;34.89;100156.84;5055288;28;20060;-64
2021/05/06 12:46:07;;;;;;;5.93;2.33;;;;;;;15.50;34.35;100151.16;5049865;28;20057;-64
2021/05/06 12:48:41;;;;;;;5.60;2.10;;;;;;;15.48;35.13;100147.75;5045899;28;20041;-64
2021/05/06 12:51:09;;;;;;;6.10;2.35;;;;;;;15.53;35.39;100152.75;5047588;28;20506;-64
2021/05/06 12:53:35;;;;;;;5.53;2.20;;;;;;;15.42;34.64;100148.06;5052120;28;20045;-63
2021/05/06 12:56:02;;;;;;;6.00;2.15;;;;;;;15.24;36.13;100145.41;5054894;28;20052;-64
2021/05/06 12:58:29;;;;;;;6.40;3.08;;;;;;;15.23;35.96;100148.94;5042282;28;20049;-64
2021/05/06 13:01:04;;;;;;;5.00;2.22;;;;;;;14.71;35.19;100138.31;5051421;28;20084;-64
2021/05/06 13:03:32;;;;;;;5.20;2.20;;;;;;;14.40;36.64;100135.28;5051348;28;20064;-63
2021/05/06 13:06:04;;;;;;;7.03;3.75;;;;;;;14.40;41.31;100134.44;5051310;28;20521;-64
2021/05/06 13:08:35;;;;;;;5.50;2.50;;;;;;;14.60;39.42;100136.16;5048582;28;20048;-64
2021/05/06 13:11:03;;;;;;;5.88;2.33;;;;;;;14.73;35.27;100131.22;5050854;28;20045;-63
2021/05/06 13:13:37;;;;;;;5.85;3.25;;;;;;;14.80;37.04;100122.19;5043702;28;20089;-63
2021/05/06 13:16:04;;;;;;;6.40;2.50;;;;;;;14.79;34.95;100120.47;5050332;28;20052;-63
2021/05/06 13:18:31;;;;;;;7.38;2.42;;;;;;;14.88;33.96;100114.81;5045349;28;20080;-63
2021/05/06 13:20:57;;;;;;;5.13;2.00;;;;;;;14.96;36.17;100106.59;5049518;28;20044;-64
2021/05/06 13:23:25;;;;;;;6.53;2.10;;;;;;;15.04;34.42;100107.06;5062608;28;20665;-63
2021/05/06 13:25:52;;;;;;;9.90;5.80;;;;;;;15.23;37.64;100109.63;5055262;28;20045;-64
2021/05/06 13:28:19;;;;;;;5.93;2.38;;;;;;;15.30;35.53;100098.88;5044090;28;20075;-64
2021/05/06 13:30:47;;;;;;;7.95;4.53;;;;;;;15.19;35.41;100102.88;5048928;28;20053;-63
2021/05/06 13:33:17;;;;;;;4.78;2.28;;;;;;;15.14;33.79;100094.38;5059937;28;20403;-64
2021/05/06 13:36:00;;;;;;;4.53;2.22;;;;;;;15.13;32.22;100092.66;5044046;28;20586;-64
2021/05/06 13:38:26;;;;;;;4.90;2.00;;;;;;;15.04;33.53;100082.63;5043167;28;20037;-64
2021/05/06 13:40:52;;;;;;;6.05;2.22;;;;;;;15.05;34.59;100087.81;5055473;28;20052;-64
2021/05/06 13:43:18;;;;;;;8.52;4.63;;;;;;;15.17;35.10;100086.38;5051552;28;20064;-63
2021/05/06 13:45:44;;;;;;;6.38;2.08;;;;;;;15.23;33.79;100074.75;5052681;28;20045;-64
2021/05/06 13:48:10;;;;;;;4.65;1.80;;;;;;;15.30;33.17;100077.91;5059128;28;20513;-64
2021/05/06 13:50:36;;;;;;;5.38;2.10;;;;;;;15.29;34.39;100071.81;5053600;28;20048;-64
2021/05/06 13:53:03;;;;;;;7.70;2.60;;;;;;;15.42;34.14;100072.06;5051602;28;20159;-65
2021/05/06 13:55:29;;;;;;;6.20;2.88;;;;;;;15.39;32.63;100062.56;5049359;28;20128;-64
2021/05/06 13:57:55;;;;;;;5.75;2.55;;;;;;;15.42;32.48;100056.34;5046137;28;20072;-63
2021/05/06 14:00:21;;;;;;;7.28;2.70;;;;;;;15.51;33.92;100060.25;5044688;28;20045;-64
2021/05/06 14:02:47;;;;;;;4.53;1.88;;;;;;;15.41;32.03;100059.00;5047247;28;20056;-64